sensor_id;sensor_type;location;lat;lon;timestamp;P1;durP1;ratioP1;P2;durP2;ratioP2
64917;SDS011;52176;44.858;38.372;2023-02-01T00:02:00;38.75;;;12.27;;
64917;SDS011;52176;44.858;38.372;2023-02-01T00:04:27;27.50;;;11.77;;
64917;SDS011;52176;44.858;38.372;2023-02-01T00:06:53;32.35;;;12.43;;
64917;SDS011;52176;44.858;38.372;2023-02-01T00:09:19;36.45;;;12.43;;
64917;SDS011;52176;44.858;38.372;2023-02-01T00:11:45;32.95;;;12.40;;
64917;SDS011;52176;44.858;38.372;2023-02-01T00:14:11;32.83;;;13.25;;
64917;SDS011;52176;44.858;38.372;2023-02-01T00:16:37;41.03;;;11.85;;
64917;SDS011;52176;44.858;38.372;2023-02-01T00:19:07;37.65;;;12.55;;
64917;SDS011;52176;44.858;38.372;2023-02-01T00:21:37;38.70;;;11.73;;
64917;SDS011;52176;44.858;38.372;2023-02-01T00:24:04;30.08;;;12.38;;
64917;SDS011;52176;44.858;38.372;2023-02-01T00:26:31;31.95;;;12.73;;
64917;SDS011;52176;44.858;38.372;2023-02-01T00:29:00;31.08;;;12.25;;
64917;SDS011;52176;44.858;38.372;2023-02-01T00:31:26;45.05;;;11.93;;
64917;SDS011;52176;44.858;38.372;2023-02-01T00:33:53;38.10;;;11.65;;
64917;SDS011;52176;44.858;38.372;2023-02-01T00:36:19;29.58;;;11.00;;
64917;SDS011;52176;44.858;38.372;2023-02-01T00:38:45;29.80;;;12.40;;
64917;SDS011;52176;44.858;38.372;2023-02-01T00:41:12;26.95;;;11.80;;
64917;SDS011;52176;44.858;38.372;2023-02-01T00:43:42;42.15;;;11.43;;
64917;SDS011;52176;44.858;38.372;2023-02-01T00:46:09;34.55;;;12.13;;
64917;SDS011;52176;44.858;38.372;2023-02-01T00:48:37;26.90;;;12.18;;
64917;SDS011;52176;44.858;38.372;2023-02-01T00:51:05;28.35;;;12.20;;
64917;SDS011;52176;44.858;38.372;2023-02-01T00:53:35;33.22;;;11.98;;
64917;SDS011;52176;44.858;38.372;2023-02-01T00:56:02;31.58;;;10.82;;
64917;SDS011;52176;44.858;38.372;2023-02-01T00:58:28;28.20;;;11.25;;
64917;SDS011;52176;44.858;38.372;2023-02-01T01:03:38;24.50;;;10.15;;
64917;SDS011;52176;44.858;38.372;2023-02-01T01:06:17;23.27;;;10.15;;
64917;SDS011;52176;44.858;38.372;2023-02-01T01:08:48;35.25;;;11.82;;
64917;SDS011;52176;44.858;38.372;2023-02-01T01:11:19;28.75;;;10.27;;
64917;SDS011;52176;44.858;38.372;2023-02-01T01:13:50;27.45;;;10.77;;
64917;SDS011;52176;44.858;38.372;2023-02-01T01:16:18;23.98;;;10.38;;
64917;SDS011;52176;44.858;38.372;2023-02-01T01:18:46;41.92;;;9.32;;
64917;SDS011;52176;44.858;38.372;2023-02-01T01:21:12;24.92;;;9.80;;
64917;SDS011;52176;44.858;38.372;2023-02-01T01:23:40;21.00;;;9.52;;
64917;SDS011;52176;44.858;38.372;2023-02-01T01:26:06;27.95;;;9.98;;
64917;SDS011;52176;44.858;38.372;2023-02-01T01:28:34;26.88;;;8.82;;
64917;SDS011;52176;44.858;38.372;2023-02-01T01:31:00;41.45;;;9.90;;
64917;SDS011;52176;44.858;38.372;2023-02-01T01:33:26;24.00;;;9.07;;
64917;SDS011;52176;44.858;38.372;2023-02-01T01:35:51;48.90;;;9.65;;
64917;SDS011;52176;44.858;38.372;2023-02-01T01:38:17;20.67;;;9.63;;
64917;SDS011;52176;44.858;38.372;2023-02-01T01:40:46;27.42;;;8.75;;
64917;SDS011;52176;44.858;38.372;2023-02-01T01:43:16;21.52;;;9.10;;
64917;SDS011;52176;44.858;38.372;2023-02-01T01:45:45;22.95;;;9.38;;
64917;SDS011;52176;44.858;38.372;2023-02-01T01:51:00;19.58;;;8.43;;
64917;SDS011;52176;44.858;38.372;2023-02-01T01:53:33;17.95;;;8.07;;
64917;SDS011;52176;44.858;38.372;2023-02-01T01:56:03;21.13;;;7.97;;
64917;SDS011;52176;44.858;38.372;2023-02-01T01:58:30;19.02;;;8.35;;
64917;SDS011;52176;44.858;38.372;2023-02-01T02:00:59;24.50;;;8.10;;
64917;SDS011;52176;44.858;38.372;2023-02-01T02:03:30;16.33;;;7.55;;
64917;SDS011;52176;44.858;38.372;2023-02-01T02:06:00;25.65;;;8.35;;
64917;SDS011;52176;44.858;38.372;2023-02-01T02:08:29;17.15;;;7.07;;
64917;SDS011;52176;44.858;38.372;2023-02-01T02:10:55;19.30;;;7.97;;
64917;SDS011;52176;44.858;38.372;2023-02-01T02:13:34;18.15;;;7.55;;
64917;SDS011;52176;44.858;38.372;2023-02-01T02:35:42;15.82;;;6.13;;
64917;SDS011;52176;44.858;38.372;2023-02-01T02:38:44;21.45;;;7.68;;
64917;SDS011;52176;44.858;38.372;2023-02-01T02:47:34;16.33;;;7.55;;
64917;SDS011;52176;44.858;38.372;2023-02-01T02:50:20;21.65;;;8.23;;
64917;SDS011;52176;44.858;38.372;2023-02-01T02:53:16;16.30;;;7.88;;
64917;SDS011;52176;44.858;38.372;2023-02-01T02:56:05;19.30;;;7.72;;
64917;SDS011;52176;44.858;38.372;2023-02-01T02:58:52;18.15;;;7.95;;
64917;SDS011;52176;44.858;38.372;2023-02-01T03:01:38;20.52;;;8.25;;
64917;SDS011;52176;44.858;38.372;2023-02-01T03:04:24;17.15;;;8.18;;
64917;SDS011;52176;44.858;38.372;2023-02-01T03:06:51;18.42;;;7.88;;
64917;SDS011;52176;44.858;38.372;2023-02-01T03:09:21;17.85;;;8.48;;
64917;SDS011;52176;44.858;38.372;2023-02-01T03:11:56;17.95;;;7.60;;
64917;SDS011;52176;44.858;38.372;2023-02-01T03:14:46;26.88;;;9.25;;
64917;SDS011;52176;44.858;38.372;2023-02-01T03:17:18;30.23;;;9.25;;
64917;SDS011;52176;44.858;38.372;2023-02-01T03:19:47;22.67;;;8.75;;
64917;SDS011;52176;44.858;38.372;2023-02-01T03:22:20;27.85;;;9.38;;
64917;SDS011;52176;44.858;38.372;2023-02-01T03:24:56;20.42;;;8.43;;
64917;SDS011;52176;44.858;38.372;2023-02-01T03:27:37;21.83;;;8.73;;
64917;SDS011;52176;44.858;38.372;2023-02-01T03:30:19;24.10;;;8.90;;
64917;SDS011;52176;44.858;38.372;2023-02-01T03:32:49;23.05;;;9.35;;
64917;SDS011;52176;44.858;38.372;2023-02-01T03:38:11;29.13;;;9.82;;
64917;SDS011;52176;44.858;38.372;2023-02-01T03:40:46;24.80;;;8.73;;
64917;SDS011;52176;44.858;38.372;2023-02-01T03:43:42;20.35;;;9.10;;
64917;SDS011;52176;44.858;38.372;2023-02-01T03:46:16;18.13;;;8.40;;
64917;SDS011;52176;44.858;38.372;2023-02-01T03:51:15;19.63;;;9.07;;
64917;SDS011;52176;44.858;38.372;2023-02-01T03:53:42;20.17;;;9.30;;
64917;SDS011;52176;44.858;38.372;2023-02-01T03:56:11;18.95;;;9.00;;
64917;SDS011;52176;44.858;38.372;2023-02-01T03:58:38;30.15;;;10.38;;
64917;SDS011;52176;44.858;38.372;2023-02-01T04:01:05;24.90;;;9.60;;
64917;SDS011;52176;44.858;38.372;2023-02-01T04:03:34;21.25;;;9.25;;
64917;SDS011;52176;44.858;38.372;2023-02-01T04:06:00;22.63;;;9.93;;
64917;SDS011;52176;44.858;38.372;2023-02-01T04:08:28;24.52;;;10.07;;
64917;SDS011;52176;44.858;38.372;2023-02-01T04:10:53;26.08;;;9.20;;
64917;SDS011;52176;44.858;38.372;2023-02-01T04:13:19;25.55;;;9.90;;
64917;SDS011;52176;44.858;38.372;2023-02-01T04:15:46;24.48;;;9.60;;
64917;SDS011;52176;44.858;38.372;2023-02-01T04:18:15;22.35;;;9.75;;
64917;SDS011;52176;44.858;38.372;2023-02-01T04:20:41;20.10;;;9.23;;
64917;SDS011;52176;44.858;38.372;2023-02-01T04:23:08;19.20;;;7.93;;
64917;SDS011;52176;44.858;38.372;2023-02-01T04:25:34;21.90;;;9.82;;
64917;SDS011;52176;44.858;38.372;2023-02-01T04:28:00;20.17;;;8.90;;
64917;SDS011;52176;44.858;38.372;2023-02-01T04:30:25;20.25;;;9.25;;
64917;SDS011;52176;44.858;38.372;2023-02-01T04:32:51;30.50;;;9.40;;
64917;SDS011;52176;44.858;38.372;2023-02-01T04:35:17;26.73;;;11.48;;
64917;SDS011;52176;44.858;38.372;2023-02-01T04:37:43;27.38;;;11.18;;
64917;SDS011;52176;44.858;38.372;2023-02-01T04:40:09;53.67;;;20.65;;
64917;SDS011;52176;44.858;38.372;2023-02-01T04:42:35;31.63;;;12.38;;
64917;SDS011;52176;44.858;38.372;2023-02-01T04:45:01;30.17;;;11.02;;
64917;SDS011;52176;44.858;38.372;2023-02-01T04:48:00;25.00;;;10.57;;
64917;SDS011;52176;44.858;38.372;2023-02-01T04:50:26;31.13;;;11.55;;
64917;SDS011;52176;44.858;38.372;2023-02-01T04:52:52;28.02;;;11.23;;
64917;SDS011;52176;44.858;38.372;2023-02-01T04:55:18;28.70;;;11.10;;
64917;SDS011;52176;44.858;38.372;2023-02-01T04:57:43;33.38;;;11.40;;
64917;SDS011;52176;44.858;38.372;2023-02-01T05:00:10;27.05;;;10.77;;
64917;SDS011;52176;44.858;38.372;2023-02-01T05:02:36;24.27;;;10.30;;
64917;SDS011;52176;44.858;38.372;2023-02-01T05:05:02;28.55;;;11.07;;
64917;SDS011;52176;44.858;38.372;2023-02-01T05:07:29;24.33;;;11.45;;
64917;SDS011;52176;44.858;38.372;2023-02-01T05:09:54;31.33;;;12.57;;
64917;SDS011;52176;44.858;38.372;2023-02-01T05:12:20;31.85;;;12.20;;
64917;SDS011;52176;44.858;38.372;2023-02-01T05:15:05;29.00;;;11.65;;
64917;SDS011;52176;44.858;38.372;2023-02-01T05:17:31;30.45;;;11.82;;
64917;SDS011;52176;44.858;38.372;2023-02-01T05:19:57;32.40;;;11.50;;
64917;SDS011;52176;44.858;38.372;2023-02-01T05:22:23;31.85;;;11.70;;
64917;SDS011;52176;44.858;38.372;2023-02-01T05:24:49;31.23;;;11.32;;
64917;SDS011;52176;44.858;38.372;2023-02-01T05:27:15;32.38;;;11.13;;
64917;SDS011;52176;44.858;38.372;2023-02-01T05:29:41;24.83;;;10.52;;
64917;SDS011;52176;44.858;38.372;2023-02-01T05:32:08;33.33;;;13.00;;
64917;SDS011;52176;44.858;38.372;2023-02-01T05:34:35;35.90;;;13.23;;
64917;SDS011;52176;44.858;38.372;2023-02-01T05:37:02;34.10;;;12.70;;
64917;SDS011;52176;44.858;38.372;2023-02-01T05:39:28;31.17;;;11.63;;
64917;SDS011;52176;44.858;38.372;2023-02-01T05:41:53;24.33;;;9.95;;
64917;SDS011;52176;44.858;38.372;2023-02-01T05:44:19;28.25;;;9.25;;
64917;SDS011;52176;44.858;38.372;2023-02-01T05:46:45;25.38;;;10.13;;
64917;SDS011;52176;44.858;38.372;2023-02-01T05:49:11;23.00;;;9.63;;
64917;SDS011;52176;44.858;38.372;2023-02-01T05:51:37;31.70;;;10.18;;
64917;SDS011;52176;44.858;38.372;2023-02-01T05:54:03;28.15;;;9.70;;
64917;SDS011;52176;44.858;38.372;2023-02-01T05:56:29;25.88;;;11.85;;
64917;SDS011;52176;44.858;38.372;2023-02-01T05:58:54;25.85;;;10.55;;
64917;SDS011;52176;44.858;38.372;2023-02-01T06:01:20;26.90;;;11.10;;
64917;SDS011;52176;44.858;38.372;2023-02-01T06:03:46;28.38;;;11.77;;
64917;SDS011;52176;44.858;38.372;2023-02-01T06:06:12;29.45;;;11.52;;
64917;SDS011;52176;44.858;38.372;2023-02-01T06:08:38;30.25;;;11.38;;
64917;SDS011;52176;44.858;38.372;2023-02-01T06:11:05;35.17;;;11.93;;
64917;SDS011;52176;44.858;38.372;2023-02-01T06:13:32;27.38;;;10.95;;
64917;SDS011;52176;44.858;38.372;2023-02-01T06:15:58;28.23;;;11.05;;
64917;SDS011;52176;44.858;38.372;2023-02-01T06:18:24;28.13;;;10.93;;
64917;SDS011;52176;44.858;38.372;2023-02-01T06:20:54;30.88;;;11.60;;
64917;SDS011;52176;44.858;38.372;2023-02-01T06:23:21;29.42;;;11.00;;
64917;SDS011;52176;44.858;38.372;2023-02-01T06:25:52;28.83;;;11.25;;
64917;SDS011;52176;44.858;38.372;2023-02-01T06:28:24;33.35;;;12.57;;
64917;SDS011;52176;44.858;38.372;2023-02-01T06:30:50;24.15;;;9.13;;
64917;SDS011;52176;44.858;38.372;2023-02-01T06:33:16;19.42;;;8.70;;
64917;SDS011;52176;44.858;38.372;2023-02-01T06:35:42;16.85;;;8.65;;
64917;SDS011;52176;44.858;38.372;2023-02-01T06:38:12;17.85;;;7.75;;
64917;SDS011;52176;44.858;38.372;2023-02-01T06:40:39;16.38;;;6.72;;
64917;SDS011;52176;44.858;38.372;2023-02-01T06:43:09;16.50;;;7.03;;
64917;SDS011;52176;44.858;38.372;2023-02-01T06:45:35;13.13;;;6.22;;
64917;SDS011;52176;44.858;38.372;2023-02-01T06:48:00;9.70;;;5.65;;
64917;SDS011;52176;44.858;38.372;2023-02-01T06:50:26;11.32;;;5.45;;
64917;SDS011;52176;44.858;38.372;2023-02-01T06:52:53;12.27;;;5.90;;
64917;SDS011;52176;44.858;38.372;2023-02-01T06:55:24;9.40;;;4.63;;
64917;SDS011;52176;44.858;38.372;2023-02-01T06:57:52;11.27;;;5.53;;
64917;SDS011;52176;44.858;38.372;2023-02-01T07:00:19;18.00;;;6.80;;
64917;SDS011;52176;44.858;38.372;2023-02-01T07:02:46;13.82;;;6.00;;
64917;SDS011;52176;44.858;38.372;2023-02-01T07:05:15;16.30;;;6.93;;
64917;SDS011;52176;44.858;38.372;2023-02-01T07:07:41;17.58;;;6.65;;
64917;SDS011;52176;44.858;38.372;2023-02-01T07:10:07;15.63;;;6.30;;
64917;SDS011;52176;44.858;38.372;2023-02-01T07:12:33;14.00;;;6.88;;
64917;SDS011;52176;44.858;38.372;2023-02-01T07:14:59;15.57;;;7.35;;
64917;SDS011;52176;44.858;38.372;2023-02-01T07:17:27;15.90;;;7.05;;
64917;SDS011;52176;44.858;38.372;2023-02-01T07:19:57;14.98;;;6.65;;
64917;SDS011;52176;44.858;38.372;2023-02-01T07:22:25;17.40;;;7.28;;
64917;SDS011;52176;44.858;38.372;2023-02-01T07:24:51;18.95;;;7.45;;
64917;SDS011;52176;44.858;38.372;2023-02-01T07:27:17;15.00;;;7.50;;
64917;SDS011;52176;44.858;38.372;2023-02-01T07:29:43;11.75;;;6.00;;
64917;SDS011;52176;44.858;38.372;2023-02-01T07:32:09;11.13;;;5.60;;
64917;SDS011;52176;44.858;38.372;2023-02-01T07:34:35;18.92;;;6.82;;
64917;SDS011;52176;44.858;38.372;2023-02-01T07:37:01;16.42;;;6.88;;
64917;SDS011;52176;44.858;38.372;2023-02-01T07:39:26;14.63;;;6.63;;
64917;SDS011;52176;44.858;38.372;2023-02-01T07:41:53;12.55;;;5.82;;
64917;SDS011;52176;44.858;38.372;2023-02-01T07:44:20;12.20;;;6.05;;
64917;SDS011;52176;44.858;38.372;2023-02-01T07:46:48;12.88;;;6.30;;
64917;SDS011;52176;44.858;38.372;2023-02-01T07:49:15;10.68;;;5.90;;
64917;SDS011;52176;44.858;38.372;2023-02-01T07:51:42;11.38;;;5.82;;
64917;SDS011;52176;44.858;38.372;2023-02-01T07:54:08;13.15;;;5.82;;
64917;SDS011;52176;44.858;38.372;2023-02-01T07:56:34;8.98;;;5.20;;
64917;SDS011;52176;44.858;38.372;2023-02-01T07:59:00;10.98;;;5.88;;
64917;SDS011;52176;44.858;38.372;2023-02-01T08:01:27;12.75;;;6.07;;
64917;SDS011;52176;44.858;38.372;2023-02-01T08:03:55;9.35;;;4.35;;
64917;SDS011;52176;44.858;38.372;2023-02-01T08:06:25;10.70;;;6.10;;
64917;SDS011;52176;44.858;38.372;2023-02-01T08:08:54;11.05;;;5.60;;
64917;SDS011;52176;44.858;38.372;2023-02-01T08:11:20;15.02;;;5.70;;
64917;SDS011;52176;44.858;38.372;2023-02-01T08:13:47;14.15;;;7.03;;
64917;SDS011;52176;44.858;38.372;2023-02-01T08:16:13;7.32;;;4.22;;
64917;SDS011;52176;44.858;38.372;2023-02-01T08:18:41;9.13;;;5.40;;
64917;SDS011;52176;44.858;38.372;2023-02-01T08:21:08;11.52;;;5.95;;
64917;SDS011;52176;44.858;38.372;2023-02-01T08:23:36;9.80;;;5.88;;
64917;SDS011;52176;44.858;38.372;2023-02-01T08:26:13;9.75;;;5.75;;
64917;SDS011;52176;44.858;38.372;2023-02-01T08:28:50;8.00;;;4.68;;
64917;SDS011;52176;44.858;38.372;2023-02-01T08:31:19;7.47;;;4.80;;
64917;SDS011;52176;44.858;38.372;2023-02-01T08:33:50;5.75;;;4.30;;
64917;SDS011;52176;44.858;38.372;2023-02-01T08:36:19;7.43;;;4.80;;
64917;SDS011;52176;44.858;38.372;2023-02-01T08:38:45;7.88;;;4.60;;
64917;SDS011;52176;44.858;38.372;2023-02-01T08:41:16;7.13;;;4.35;;
64917;SDS011;52176;44.858;38.372;2023-02-01T08:43:43;7.35;;;4.65;;
64917;SDS011;52176;44.858;38.372;2023-02-01T08:46:09;8.52;;;5.03;;
64917;SDS011;52176;44.858;38.372;2023-02-01T08:48:36;8.70;;;4.88;;
64917;SDS011;52176;44.858;38.372;2023-02-01T08:51:12;9.00;;;4.57;;
64917;SDS011;52176;44.858;38.372;2023-02-01T08:53:40;8.50;;;5.07;;
64917;SDS011;52176;44.858;38.372;2023-02-01T08:56:09;9.05;;;4.45;;
64917;SDS011;52176;44.858;38.372;2023-02-01T08:58:36;7.97;;;4.35;;
64917;SDS011;52176;44.858;38.372;2023-02-01T09:01:04;7.38;;;4.65;;
64917;SDS011;52176;44.858;38.372;2023-02-01T09:03:31;7.15;;;4.55;;
64917;SDS011;52176;44.858;38.372;2023-02-01T09:06:01;6.78;;;5.00;;
64917;SDS011;52176;44.858;38.372;2023-02-01T09:08:31;8.02;;;4.40;;
64917;SDS011;52176;44.858;38.372;2023-02-01T09:10:59;5.68;;;4.07;;
64917;SDS011;52176;44.858;38.372;2023-02-01T09:13:29;7.60;;;4.90;;
64917;SDS011;52176;44.858;38.372;2023-02-01T09:15:55;10.05;;;4.47;;
64917;SDS011;52176;44.858;38.372;2023-02-01T09:18:22;6.90;;;4.65;;
64917;SDS011;52176;44.858;38.372;2023-02-01T09:20:48;6.30;;;4.30;;
64917;SDS011;52176;44.858;38.372;2023-02-01T09:23:14;6.40;;;4.25;;
64917;SDS011;52176;44.858;38.372;2023-02-01T09:25:40;6.95;;;4.35;;
64917;SDS011;52176;44.858;38.372;2023-02-01T09:28:06;6.43;;;4.20;;
64917;SDS011;52176;44.858;38.372;2023-02-01T09:30:34;7.22;;;4.80;;
64917;SDS011;52176;44.858;38.372;2023-02-01T09:33:02;6.68;;;4.78;;
64917;SDS011;52176;44.858;38.372;2023-02-01T09:35:28;6.78;;;4.57;;
64917;SDS011;52176;44.858;38.372;2023-02-01T09:37:54;7.43;;;4.88;;
64917;SDS011;52176;44.858;38.372;2023-02-01T09:40:20;7.85;;;5.15;;
64917;SDS011;52176;44.858;38.372;2023-02-01T09:45:46;10.23;;;6.28;;
64917;SDS011;52176;44.858;38.372;2023-02-01T09:48:20;9.52;;;5.88;;
64917;SDS011;52176;44.858;38.372;2023-02-01T09:50:55;9.15;;;5.57;;
64917;SDS011;52176;44.858;38.372;2023-02-01T09:53:35;8.57;;;5.18;;
64917;SDS011;52176;44.858;38.372;2023-02-01T09:56:12;6.72;;;5.22;;
64917;SDS011;52176;44.858;38.372;2023-02-01T09:58:51;7.35;;;4.70;;
64917;SDS011;52176;44.858;38.372;2023-02-01T10:01:26;10.13;;;4.60;;
64917;SDS011;52176;44.858;38.372;2023-02-01T10:04:07;7.90;;;4.68;;
64917;SDS011;52176;44.858;38.372;2023-02-01T10:26:23;7.43;;;4.63;;
64917;SDS011;52176;44.858;38.372;2023-02-01T10:29:00;7.43;;;5.32;;
64917;SDS011;52176;44.858;38.372;2023-02-01T10:31:35;6.85;;;4.65;;
64917;SDS011;52176;44.858;38.372;2023-02-01T10:34:15;7.53;;;4.97;;
64917;SDS011;52176;44.858;38.372;2023-02-01T10:36:54;6.95;;;4.65;;
64917;SDS011;52176;44.858;38.372;2023-02-01T10:39:25;7.30;;;4.68;;
64917;SDS011;52176;44.858;38.372;2023-02-01T10:41:51;7.07;;;4.55;;
64917;SDS011;52176;44.858;38.372;2023-02-01T10:44:18;6.20;;;4.30;;
64917;SDS011;52176;44.858;38.372;2023-02-01T10:46:49;6.25;;;4.30;;
64917;SDS011;52176;44.858;38.372;2023-02-01T10:52:14;6.35;;;4.05;;
64917;SDS011;52176;44.858;38.372;2023-02-01T10:54:42;7.63;;;4.00;;
64917;SDS011;52176;44.858;38.372;2023-02-01T10:57:09;7.25;;;4.38;;
64917;SDS011;52176;44.858;38.372;2023-02-01T10:59:44;9.10;;;5.22;;
64917;SDS011;52176;44.858;38.372;2023-02-01T11:02:25;8.93;;;4.60;;
64917;SDS011;52176;44.858;38.372;2023-02-01T11:07:53;7.20;;;4.57;;
64917;SDS011;52176;44.858;38.372;2023-02-01T11:10:40;7.43;;;4.20;;
64917;SDS011;52176;44.858;38.372;2023-02-01T11:13:14;6.15;;;4.18;;
64917;SDS011;52176;44.858;38.372;2023-02-01T11:15:43;7.30;;;4.82;;
64917;SDS011;52176;44.858;38.372;2023-02-01T11:18:20;5.53;;;4.03;;
64917;SDS011;52176;44.858;38.372;2023-02-01T11:20:52;7.35;;;3.88;;
64917;SDS011;52176;44.858;38.372;2023-02-01T11:23:21;10.48;;;4.38;;
64917;SDS011;52176;44.858;38.372;2023-02-01T11:25:53;8.00;;;4.53;;
64917;SDS011;52176;44.858;38.372;2023-02-01T11:28:22;7.82;;;5.20;;
64917;SDS011;52176;44.858;38.372;2023-02-01T11:30:53;9.43;;;4.50;;
64917;SDS011;52176;44.858;38.372;2023-02-01T11:33:23;11.15;;;4.85;;
64917;SDS011;52176;44.858;38.372;2023-02-01T11:35:55;7.68;;;4.07;;
64917;SDS011;52176;44.858;38.372;2023-02-01T11:38:30;10.20;;;4.63;;
64917;SDS011;52176;44.858;38.372;2023-02-01T11:41:29;7.95;;;4.65;;
64917;SDS011;52176;44.858;38.372;2023-02-01T11:43:59;9.35;;;4.70;;
64917;SDS011;52176;44.858;38.372;2023-02-01T11:46:40;7.38;;;4.55;;
64917;SDS011;52176;44.858;38.372;2023-02-01T11:54:38;7.57;;;4.00;;
64917;SDS011;52176;44.858;38.372;2023-02-01T12:05:12;9.93;;;5.60;;
64917;SDS011;52176;44.858;38.372;2023-02-01T12:07:55;11.18;;;6.15;;
64917;SDS011;52176;44.858;38.372;2023-02-01T12:16:28;9.55;;;5.47;;
64917;SDS011;52176;44.858;38.372;2023-02-01T12:24:26;12.70;;;5.22;;
64917;SDS011;52176;44.858;38.372;2023-02-01T12:43:34;8.05;;;4.45;;
64917;SDS011;52176;44.858;38.372;2023-02-01T12:51:26;9.60;;;4.53;;
64917;SDS011;52176;44.858;38.372;2023-02-01T12:56:59;6.80;;;4.38;;
64917;SDS011;52176;44.858;38.372;2023-02-01T12:59:33;7.35;;;4.70;;
64917;SDS011;52176;44.858;38.372;2023-02-01T13:02:16;8.57;;;4.45;;
64917;SDS011;52176;44.858;38.372;2023-02-01T13:04:55;8.38;;;4.70;;
64917;SDS011;52176;44.858;38.372;2023-02-01T13:07:36;8.23;;;5.10;;
64917;SDS011;52176;44.858;38.372;2023-02-01T13:10:12;12.10;;;5.32;;
64917;SDS011;52176;44.858;38.372;2023-02-01T13:17:54;6.80;;;4.53;;
64917;SDS011;52176;44.858;38.372;2023-02-01T13:20:31;24.77;;;11.45;;
64917;SDS011;52176;44.858;38.372;2023-02-01T13:23:01;10.77;;;4.63;;
64917;SDS011;52176;44.858;38.372;2023-02-01T13:25:54;13.75;;;5.15;;
64917;SDS011;52176;44.858;38.372;2023-02-01T13:31:10;11.32;;;4.63;;
64917;SDS011;52176;44.858;38.372;2023-02-01T13:34:26;8.85;;;3.38;;
64917;SDS011;52176;44.858;38.372;2023-02-01T13:39:41;6.00;;;4.13;;
64917;SDS011;52176;44.858;38.372;2023-02-01T13:42:29;9.32;;;4.50;;
64917;SDS011;52176;44.858;38.372;2023-02-01T13:45:03;12.60;;;4.32;;
64917;SDS011;52176;44.858;38.372;2023-02-01T13:47:39;10.02;;;4.88;;
64917;SDS011;52176;44.858;38.372;2023-02-01T13:52:51;7.65;;;4.72;;
64917;SDS011;52176;44.858;38.372;2023-02-01T13:55:34;9.95;;;5.55;;
64917;SDS011;52176;44.858;38.372;2023-02-01T13:58:11;8.15;;;4.80;;
64917;SDS011;52176;44.858;38.372;2023-02-01T14:00:47;7.75;;;5.07;;
64917;SDS011;52176;44.858;38.372;2023-02-01T14:03:20;8.45;;;4.93;;
64917;SDS011;52176;44.858;38.372;2023-02-01T14:08:24;9.77;;;5.82;;
64917;SDS011;52176;44.858;38.372;2023-02-01T14:11:02;11.77;;;5.88;;
64917;SDS011;52176;44.858;38.372;2023-02-01T14:13:37;8.93;;;5.90;;
64917;SDS011;52176;44.858;38.372;2023-02-01T14:31:52;15.60;;;8.10;;
64917;SDS011;52176;44.858;38.372;2023-02-01T14:37:05;13.30;;;7.07;;
64917;SDS011;52176;44.858;38.372;2023-02-01T14:39:53;11.90;;;6.82;;
64917;SDS011;52176;44.858;38.372;2023-02-01T14:42:47;14.98;;;6.35;;
64917;SDS011;52176;44.858;38.372;2023-02-01T14:48:39;13.52;;;6.88;;
64917;SDS011;52176;44.858;38.372;2023-02-01T14:50:44;12.35;;;6.80;;
64917;SDS011;52176;44.858;38.372;2023-02-01T14:53:15;10.88;;;6.65;;
64917;SDS011;52176;44.858;38.372;2023-02-01T14:56:05;14.68;;;7.13;;
64917;SDS011;52176;44.858;38.372;2023-02-01T14:58:44;13.80;;;7.75;;
64917;SDS011;52176;44.858;38.372;2023-02-01T15:01:24;16.95;;;8.07;;
64917;SDS011;52176;44.858;38.372;2023-02-01T15:06:41;18.75;;;9.18;;
64917;SDS011;52176;44.858;38.372;2023-02-01T15:09:09;22.30;;;10.00;;
64917;SDS011;52176;44.858;38.372;2023-02-01T15:11:56;19.55;;;9.85;;
64917;SDS011;52176;44.858;38.372;2023-02-01T15:14:25;24.90;;;10.77;;
64917;SDS011;52176;44.858;38.372;2023-02-01T15:16:52;21.48;;;10.75;;
64917;SDS011;52176;44.858;38.372;2023-02-01T15:19:29;22.17;;;10.82;;
64917;SDS011;52176;44.858;38.372;2023-02-01T15:21:59;19.35;;;10.00;;
64917;SDS011;52176;44.858;38.372;2023-02-01T15:24:26;21.60;;;10.75;;
64917;SDS011;52176;44.858;38.372;2023-02-01T15:26:54;23.63;;;10.95;;
64917;SDS011;52176;44.858;38.372;2023-02-01T15:29:21;19.83;;;9.77;;
64917;SDS011;52176;44.858;38.372;2023-02-01T15:31:52;24.38;;;9.93;;
64917;SDS011;52176;44.858;38.372;2023-02-01T15:34:19;22.08;;;10.45;;
64917;SDS011;52176;44.858;38.372;2023-02-01T15:36:46;20.20;;;9.48;;
64917;SDS011;52176;44.858;38.372;2023-02-01T15:41:47;18.15;;;9.50;;
64917;SDS011;52176;44.858;38.372;2023-02-01T15:44:27;18.80;;;9.65;;
64917;SDS011;52176;44.858;38.372;2023-02-01T15:49:52;17.63;;;9.20;;
64917;SDS011;52176;44.858;38.372;2023-02-01T15:52:39;19.38;;;9.43;;
64917;SDS011;52176;44.858;38.372;2023-02-01T15:55:52;16.17;;;8.48;;
64917;SDS011;52176;44.858;38.372;2023-02-01T15:57:55;17.38;;;9.30;;
64917;SDS011;52176;44.858;38.372;2023-02-01T16:02:51;22.48;;;10.10;;
64917;SDS011;52176;44.858;38.372;2023-02-01T16:10:41;23.10;;;10.25;;
64917;SDS011;52176;44.858;38.372;2023-02-01T16:13:11;23.58;;;10.25;;
64917;SDS011;52176;44.858;38.372;2023-02-01T16:15:38;20.73;;;9.88;;
64917;SDS011;52176;44.858;38.372;2023-02-01T16:18:05;20.52;;;9.98;;
64917;SDS011;52176;44.858;38.372;2023-02-01T16:20:33;18.25;;;9.52;;
64917;SDS011;52176;44.858;38.372;2023-02-01T16:23:00;18.98;;;8.93;;
64917;SDS011;52176;44.858;38.372;2023-02-01T16:25:28;18.60;;;9.20;;
64917;SDS011;52176;44.858;38.372;2023-02-01T16:27:54;18.25;;;9.40;;
64917;SDS011;52176;44.858;38.372;2023-02-01T16:30:20;13.48;;;8.00;;
64917;SDS011;52176;44.858;38.372;2023-02-01T16:32:59;18.27;;;8.68;;
64917;SDS011;52176;44.858;38.372;2023-02-01T16:35:31;18.95;;;8.77;;
64917;SDS011;52176;44.858;38.372;2023-02-01T16:38:04;15.10;;;7.53;;
64917;SDS011;52176;44.858;38.372;2023-02-01T16:40:41;19.50;;;9.95;;
64917;SDS011;52176;44.858;38.372;2023-02-01T16:45:41;22.88;;;9.88;;
64917;SDS011;52176;44.858;38.372;2023-02-01T16:48:23;19.23;;;9.73;;
64917;SDS011;52176;44.858;38.372;2023-02-01T16:50:57;26.42;;;10.55;;
64917;SDS011;52176;44.858;38.372;2023-02-01T16:53:26;22.55;;;10.23;;
64917;SDS011;52176;44.858;38.372;2023-02-01T16:55:53;21.98;;;10.52;;
64917;SDS011;52176;44.858;38.372;2023-02-01T16:58:25;23.70;;;10.45;;
64917;SDS011;52176;44.858;38.372;2023-02-01T17:00:52;21.60;;;10.15;;
64917;SDS011;52176;44.858;38.372;2023-02-01T17:03:19;18.55;;;9.73;;
64917;SDS011;52176;44.858;38.372;2023-02-01T17:05:47;21.98;;;9.02;;
64917;SDS011;52176;44.858;38.372;2023-02-01T17:08:17;23.20;;;10.48;;
64917;SDS011;52176;44.858;38.372;2023-02-01T17:10:47;25.85;;;10.63;;
64917;SDS011;52176;44.858;38.372;2023-02-01T17:13:14;19.52;;;10.63;;
64917;SDS011;52176;44.858;38.372;2023-02-01T17:15:43;18.60;;;9.88;;
64917;SDS011;52176;44.858;38.372;2023-02-01T17:18:14;20.77;;;8.93;;
64917;SDS011;52176;44.858;38.372;2023-02-01T17:20:42;16.88;;;8.30;;
64917;SDS011;52176;44.858;38.372;2023-02-01T17:23:08;17.90;;;9.05;;
64917;SDS011;52176;44.858;38.372;2023-02-01T17:25:34;17.52;;;8.50;;
64917;SDS011;52176;44.858;38.372;2023-02-01T17:28:00;16.80;;;8.75;;
64917;SDS011;52176;44.858;38.372;2023-02-01T17:30:26;16.83;;;8.70;;
64917;SDS011;52176;44.858;38.372;2023-02-01T17:32:52;17.05;;;8.60;;